sensor_id;sensor_type;location;lat;lon;timestamp;P1;durP1;ratioP1;P2;durP2;ratioP2
52458;SDS011;38372;52.902;6.024;2023-05-21T00:01:41;2.13;;;1.35;;
52458;SDS011;38372;52.902;6.024;2023-05-21T00:04:07;1.75;;;1.13;;
52458;SDS011;38372;52.902;6.024;2023-05-21T00:06:35;1.83;;;1.08;;
52458;SDS011;38372;52.902;6.024;2023-05-21T00:09:02;2.17;;;1.05;;
52458;SDS011;38372;52.902;6.024;2023-05-21T00:11:28;1.95;;;0.95;;
52458;SDS011;38372;52.902;6.024;2023-05-21T00:13:55;2.78;;;1.30;;
52458;SDS011;38372;52.902;6.024;2023-05-21T00:16:21;1.33;;;0.70;;
52458;SDS011;38372;52.902;6.024;2023-05-21T00:18:47;2.17;;;1.13;;
52458;SDS011;38372;52.902;6.024;2023-05-21T00:21:16;1.98;;;0.95;;
52458;SDS011;38372;52.902;6.024;2023-05-21T00:23:42;2.25;;;0.98;;
52458;SDS011;38372;52.902;6.024;2023-05-21T00:26:09;3.67;;;1.00;;
52458;SDS011;38372;52.902;6.024;2023-05-21T00:28:35;2.05;;;1.35;;
52458;SDS011;38372;52.902;6.024;2023-05-21T00:31:01;1.90;;;0.93;;
52458;SDS011;38372;52.902;6.024;2023-05-21T00:33:27;1.55;;;0.95;;
52458;SDS011;38372;52.902;6.024;2023-05-21T00:35:55;1.88;;;1.20;;
52458;SDS011;38372;52.902;6.024;2023-05-21T00:38:22;2.25;;;0.95;;
52458;SDS011;38372;52.902;6.024;2023-05-21T00:40:48;3.33;;;1.00;;
52458;SDS011;38372;52.902;6.024;2023-05-21T00:43:14;2.75;;;1.30;;
52458;SDS011;38372;52.902;6.024;2023-05-21T00:45:40;1.73;;;1.08;;
52458;SDS011;38372;52.902;6.024;2023-05-21T00:48:11;2.60;;;0.90;;
52458;SDS011;38372;52.902;6.024;2023-05-21T00:50:39;1.73;;;1.15;;
52458;SDS011;38372;52.902;6.024;2023-05-21T00:53:06;2.97;;;1.30;;
52458;SDS011;38372;52.902;6.024;2023-05-21T00:55:38;2.78;;;1.10;;
52458;SDS011;38372;52.902;6.024;2023-05-21T00:58:04;1.25;;;0.82;;
52458;SDS011;38372;52.902;6.024;2023-05-21T01:00:34;2.75;;;1.17;;
52458;SDS011;38372;52.902;6.024;2023-05-21T01:03:01;5.60;;;1.67;;
52458;SDS011;38372;52.902;6.024;2023-05-21T01:05:27;1.90;;;0.82;;
52458;SDS011;38372;52.902;6.024;2023-05-21T01:07:54;2.70;;;1.30;;
52458;SDS011;38372;52.902;6.024;2023-05-21T01:10:22;2.92;;;0.98;;
52458;SDS011;38372;52.902;6.024;2023-05-21T01:12:49;3.00;;;1.10;;
52458;SDS011;38372;52.902;6.024;2023-05-21T01:15:16;2.63;;;1.52;;
52458;SDS011;38372;52.902;6.024;2023-05-21T01:17:41;1.58;;;1.05;;
52458;SDS011;38372;52.902;6.024;2023-05-21T01:20:10;1.70;;;1.00;;
52458;SDS011;38372;52.902;6.024;2023-05-21T01:25:14;4.05;;;0.95;;
52458;SDS011;38372;52.902;6.024;2023-05-21T01:27:40;2.80;;;1.08;;
52458;SDS011;38372;52.902;6.024;2023-05-21T01:30:06;2.65;;;1.30;;
52458;SDS011;38372;52.902;6.024;2023-05-21T01:32:43;1.35;;;0.80;;
52458;SDS011;38372;52.902;6.024;2023-05-21T01:35:19;4.47;;;1.20;;
52458;SDS011;38372;52.902;6.024;2023-05-21T01:37:54;4.55;;;1.10;;
52458;SDS011;38372;52.902;6.024;2023-05-21T01:40:30;2.58;;;1.15;;
52458;SDS011;38372;52.902;6.024;2023-05-21T01:42:56;2.05;;;1.00;;
52458;SDS011;38372;52.902;6.024;2023-05-21T01:45:23;3.83;;;1.17;;
52458;SDS011;38372;52.902;6.024;2023-05-21T01:47:50;2.00;;;1.05;;
52458;SDS011;38372;52.902;6.024;2023-05-21T01:50:20;3.25;;;1.20;;
52458;SDS011;38372;52.902;6.024;2023-05-21T01:52:48;2.03;;;1.20;;
52458;SDS011;38372;52.902;6.024;2023-05-21T01:55:16;2.55;;;1.08;;
52458;SDS011;38372;52.902;6.024;2023-05-21T01:57:42;2.33;;;1.40;;
52458;SDS011;38372;52.902;6.024;2023-05-21T02:00:08;1.20;;;0.90;;
52458;SDS011;38372;52.902;6.024;2023-05-21T02:02:35;1.83;;;0.88;;
52458;SDS011;38372;52.902;6.024;2023-05-21T02:05:01;2.70;;;1.23;;
52458;SDS011;38372;52.902;6.024;2023-05-21T02:07:26;2.22;;;1.10;;
52458;SDS011;38372;52.902;6.024;2023-05-21T02:09:53;1.63;;;0.93;;
52458;SDS011;38372;52.902;6.024;2023-05-21T02:12:19;1.80;;;1.05;;
52458;SDS011;38372;52.902;6.024;2023-05-21T02:14:44;2.78;;;1.35;;
52458;SDS011;38372;52.902;6.024;2023-05-21T02:17:14;3.55;;;1.20;;
52458;SDS011;38372;52.902;6.024;2023-05-21T02:19:41;2.50;;;1.73;;
52458;SDS011;38372;52.902;6.024;2023-05-21T02:22:09;3.05;;;1.42;;
52458;SDS011;38372;52.902;6.024;2023-05-21T02:24:35;1.77;;;1.10;;
52458;SDS011;38372;52.902;6.024;2023-05-21T02:27:01;2.03;;;1.10;;
52458;SDS011;38372;52.902;6.024;2023-05-21T02:29:27;2.58;;;1.10;;
52458;SDS011;38372;52.902;6.024;2023-05-21T02:31:53;4.72;;;1.90;;
52458;SDS011;38372;52.902;6.024;2023-05-21T02:34:19;1.60;;;1.10;;
52458;SDS011;38372;52.902;6.024;2023-05-21T02:36:45;2.65;;;1.45;;
52458;SDS011;38372;52.902;6.024;2023-05-21T02:39:16;1.88;;;1.13;;
52458;SDS011;38372;52.902;6.024;2023-05-21T02:41:44;3.70;;;1.50;;
52458;SDS011;38372;52.902;6.024;2023-05-21T02:44:11;7.30;;;1.63;;
52458;SDS011;38372;52.902;6.024;2023-05-21T02:46:37;4.20;;;1.50;;
52458;SDS011;38372;52.902;6.024;2023-05-21T02:49:03;2.25;;;1.33;;
52458;SDS011;38372;52.902;6.024;2023-05-21T02:51:28;3.92;;;1.33;;
52458;SDS011;38372;52.902;6.024;2023-05-21T02:53:54;1.45;;;0.95;;
52458;SDS011;38372;52.902;6.024;2023-05-21T02:56:20;2.47;;;1.30;;
52458;SDS011;38372;52.902;6.024;2023-05-21T02:58:46;3.28;;;1.60;;
52458;SDS011;38372;52.902;6.024;2023-05-21T03:01:12;2.00;;;1.13;;
52458;SDS011;38372;52.902;6.024;2023-05-21T03:03:37;2.08;;;1.17;;
52458;SDS011;38372;52.902;6.024;2023-05-21T03:06:03;4.28;;;1.13;;
52458;SDS011;38372;52.902;6.024;2023-05-21T03:08:29;1.98;;;1.20;;
52458;SDS011;38372;52.902;6.024;2023-05-21T03:10:55;2.53;;;1.05;;
52458;SDS011;38372;52.902;6.024;2023-05-21T03:13:21;1.67;;;0.77;;
52458;SDS011;38372;52.902;6.024;2023-05-21T03:15:47;3.15;;;1.42;;
52458;SDS011;38372;52.902;6.024;2023-05-21T03:18:13;3.28;;;1.27;;
52458;SDS011;38372;52.902;6.024;2023-05-21T03:20:39;1.73;;;1.00;;
52458;SDS011;38372;52.902;6.024;2023-05-21T03:23:10;2.92;;;1.33;;
52458;SDS011;38372;52.902;6.024;2023-05-21T03:25:37;2.17;;;1.08;;
52458;SDS011;38372;52.902;6.024;2023-05-21T03:28:03;2.05;;;1.13;;
52458;SDS011;38372;52.902;6.024;2023-05-21T03:30:31;2.60;;;1.23;;
52458;SDS011;38372;52.902;6.024;2023-05-21T03:32:56;2.70;;;1.40;;
52458;SDS011;38372;52.902;6.024;2023-05-21T03:35:24;3.35;;;1.30;;
52458;SDS011;38372;52.902;6.024;2023-05-21T03:37:50;5.38;;;1.30;;
52458;SDS011;38372;52.902;6.024;2023-05-21T03:40:15;4.00;;;1.42;;
52458;SDS011;38372;52.902;6.024;2023-05-21T03:42:41;2.33;;;1.25;;
52458;SDS011;38372;52.902;6.024;2023-05-21T03:45:07;2.35;;;1.33;;
52458;SDS011;38372;52.902;6.024;2023-05-21T03:47:33;5.45;;;1.55;;
52458;SDS011;38372;52.902;6.024;2023-05-21T03:50:00;6.18;;;1.52;;
52458;SDS011;38372;52.902;6.024;2023-05-21T03:52:27;3.58;;;1.30;;
52458;SDS011;38372;52.902;6.024;2023-05-21T03:54:53;3.45;;;1.73;;
52458;SDS011;38372;52.902;6.024;2023-05-21T03:57:18;2.58;;;1.95;;
52458;SDS011;38372;52.902;6.024;2023-05-21T03:59:44;3.53;;;1.88;;
52458;SDS011;38372;52.902;6.024;2023-05-21T04:02:10;3.65;;;1.55;;
52458;SDS011;38372;52.902;6.024;2023-05-21T04:04:36;3.17;;;1.83;;
52458;SDS011;38372;52.902;6.024;2023-05-21T04:07:02;3.67;;;1.67;;
52458;SDS011;38372;52.902;6.024;2023-05-21T04:09:29;2.15;;;1.55;;
52458;SDS011;38372;52.902;6.024;2023-05-21T04:11:54;2.40;;;1.17;;
52458;SDS011;38372;52.902;6.024;2023-05-21T04:14:23;3.60;;;1.60;;
52458;SDS011;38372;52.902;6.024;2023-05-21T04:16:49;3.97;;;1.80;;
52458;SDS011;38372;52.902;6.024;2023-05-21T04:19:15;3.65;;;1.65;;
52458;SDS011;38372;52.902;6.024;2023-05-21T04:21:41;3.42;;;1.73;;
52458;SDS011;38372;52.902;6.024;2023-05-21T04:24:09;2.38;;;1.52;;
52458;SDS011;38372;52.902;6.024;2023-05-21T04:26:34;5.03;;;2.00;;
52458;SDS011;38372;52.902;6.024;2023-05-21T04:29:00;3.38;;;1.70;;
52458;SDS011;38372;52.902;6.024;2023-05-21T04:31:29;3.80;;;1.83;;
52458;SDS011;38372;52.902;6.024;2023-05-21T04:33:58;2.65;;;1.33;;
52458;SDS011;38372;52.902;6.024;2023-05-21T04:36:24;4.65;;;2.20;;
52458;SDS011;38372;52.902;6.024;2023-05-21T04:38:53;4.72;;;1.30;;
52458;SDS011;38372;52.902;6.024;2023-05-21T04:41:19;4.65;;;1.58;;
52458;SDS011;38372;52.902;6.024;2023-05-21T04:43:45;3.72;;;1.90;;
52458;SDS011;38372;52.902;6.024;2023-05-21T04:46:11;2.85;;;1.80;;
52458;SDS011;38372;52.902;6.024;2023-05-21T04:48:37;4.07;;;2.05;;
52458;SDS011;38372;52.902;6.024;2023-05-21T04:51:05;4.68;;;1.60;;
52458;SDS011;38372;52.902;6.024;2023-05-21T04:53:31;2.75;;;1.30;;
52458;SDS011;38372;52.902;6.024;2023-05-21T04:55:58;3.13;;;1.73;;
52458;SDS011;38372;52.902;6.024;2023-05-21T04:58:23;3.25;;;1.58;;
52458;SDS011;38372;52.902;6.024;2023-05-21T05:00:50;3.75;;;1.80;;
52458;SDS011;38372;52.902;6.024;2023-05-21T05:03:17;3.50;;;1.63;;
52458;SDS011;38372;52.902;6.024;2023-05-21T05:05:43;3.95;;;1.95;;
52458;SDS011;38372;52.902;6.024;2023-05-21T05:08:12;4.90;;;1.95;;
52458;SDS011;38372;52.902;6.024;2023-05-21T05:10:38;5.50;;;2.10;;
52458;SDS011;38372;52.902;6.024;2023-05-21T05:13:03;6.20;;;2.08;;
52458;SDS011;38372;52.902;6.024;2023-05-21T05:15:29;4.18;;;1.73;;
52458;SDS011;38372;52.902;6.024;2023-05-21T05:17:55;3.55;;;1.65;;
52458;SDS011;38372;52.902;6.024;2023-05-21T05:20:21;4.43;;;2.55;;
52458;SDS011;38372;52.902;6.024;2023-05-21T05:22:47;4.78;;;1.88;;
52458;SDS011;38372;52.902;6.024;2023-05-21T05:25:12;3.15;;;1.63;;
52458;SDS011;38372;52.902;6.024;2023-05-21T05:27:38;7.05;;;1.88;;
52458;SDS011;38372;52.902;6.024;2023-05-21T05:30:04;2.70;;;1.23;;
52458;SDS011;38372;52.902;6.024;2023-05-21T05:32:31;3.65;;;1.70;;
52458;SDS011;38372;52.902;6.024;2023-05-21T05:34:57;4.95;;;2.35;;
52458;SDS011;38372;52.902;6.024;2023-05-21T05:37:22;4.85;;;2.15;;
52458;SDS011;38372;52.902;6.024;2023-05-21T05:39:48;2.97;;;1.20;;
52458;SDS011;38372;52.902;6.024;2023-05-21T05:42:14;3.65;;;1.90;;
52458;SDS011;38372;52.902;6.024;2023-05-21T05:44:40;2.10;;;1.42;;
52458;SDS011;38372;52.902;6.024;2023-05-21T05:47:06;2.85;;;1.33;;
52458;SDS011;38372;52.902;6.024;2023-05-21T05:49:35;6.45;;;2.05;;
52458;SDS011;38372;52.902;6.024;2023-05-21T05:52:01;3.28;;;2.10;;
52458;SDS011;38372;52.902;6.024;2023-05-21T05:54:27;3.88;;;1.85;;
52458;SDS011;38372;52.902;6.024;2023-05-21T05:56:53;2.78;;;1.50;;
52458;SDS011;38372;52.902;6.024;2023-05-21T05:59:19;3.58;;;1.65;;
52458;SDS011;38372;52.902;6.024;2023-05-21T06:01:44;3.30;;;1.40;;
52458;SDS011;38372;52.902;6.024;2023-05-21T06:04:11;4.05;;;1.67;;
52458;SDS011;38372;52.902;6.024;2023-05-21T06:06:36;2.53;;;1.13;;
52458;SDS011;38372;52.902;6.024;2023-05-21T06:09:03;3.50;;;1.77;;
52458;SDS011;38372;52.902;6.024;2023-05-21T06:11:28;1.98;;;1.17;;
52458;SDS011;38372;52.902;6.024;2023-05-21T06:13:54;2.78;;;1.42;;
52458;SDS011;38372;52.902;6.024;2023-05-21T06:16:20;3.08;;;1.27;;
52458;SDS011;38372;52.902;6.024;2023-05-21T06:18:46;3.28;;;1.30;;
52458;SDS011;38372;52.902;6.024;2023-05-21T06:21:12;4.15;;;1.13;;
52458;SDS011;38372;52.902;6.024;2023-05-21T06:23:38;2.00;;;1.20;;
52458;SDS011;38372;52.902;6.024;2023-05-21T06:26:04;1.75;;;1.02;;
52458;SDS011;38372;52.902;6.024;2023-05-21T06:28:30;4.63;;;1.23;;
52458;SDS011;38372;52.902;6.024;2023-05-21T06:30:56;2.20;;;1.25;;
52458;SDS011;38372;52.902;6.024;2023-05-21T06:33:22;3.08;;;1.20;;
52458;SDS011;38372;52.902;6.024;2023-05-21T06:35:47;3.33;;;1.85;;
52458;SDS011;38372;52.902;6.024;2023-05-21T06:38:13;2.95;;;1.23;;
52458;SDS011;38372;52.902;6.024;2023-05-21T06:40:39;2.33;;;1.17;;
52458;SDS011;38372;52.902;6.024;2023-05-21T06:43:05;7.10;;;1.65;;
52458;SDS011;38372;52.902;6.024;2023-05-21T06:45:30;1.90;;;1.20;;
52458;SDS011;38372;52.902;6.024;2023-05-21T06:47:56;1.30;;;1.00;;
52458;SDS011;38372;52.902;6.024;2023-05-21T06:50:22;2.95;;;1.67;;
52458;SDS011;38372;52.902;6.024;2023-05-21T06:52:49;3.42;;;1.13;;
52458;SDS011;38372;52.902;6.024;2023-05-21T06:55:15;2.97;;;1.52;;
52458;SDS011;38372;52.902;6.024;2023-05-21T06:57:41;3.85;;;1.35;;
52458;SDS011;38372;52.902;6.024;2023-05-21T07:00:08;1.63;;;1.20;;
52458;SDS011;38372;52.902;6.024;2023-05-21T07:02:34;1.38;;;0.95;;
52458;SDS011;38372;52.902;6.024;2023-05-21T07:05:00;2.83;;;1.63;;
52458;SDS011;38372;52.902;6.024;2023-05-21T07:07:26;6.38;;;1.50;;
52458;SDS011;38372;52.902;6.024;2023-05-21T07:09:52;3.83;;;1.52;;
52458;SDS011;38372;52.902;6.024;2023-05-21T07:12:18;4.78;;;1.38;;
52458;SDS011;38372;52.902;6.024;2023-05-21T07:14:43;3.17;;;1.40;;
52458;SDS011;38372;52.902;6.024;2023-05-21T07:17:09;4.60;;;1.30;;
52458;SDS011;38372;52.902;6.024;2023-05-21T07:19:35;1.85;;;1.02;;
52458;SDS011;38372;52.902;6.024;2023-05-21T07:22:02;2.50;;;1.40;;
52458;SDS011;38372;52.902;6.024;2023-05-21T07:24:29;2.10;;;1.10;;
52458;SDS011;38372;52.902;6.024;2023-05-21T07:26:55;3.00;;;1.33;;
52458;SDS011;38372;52.902;6.024;2023-05-21T07:29:21;2.40;;;1.17;;
52458;SDS011;38372;52.902;6.024;2023-05-21T07:31:46;2.95;;;1.38;;
52458;SDS011;38372;52.902;6.024;2023-05-21T07:34:12;3.45;;;1.27;;
52458;SDS011;38372;52.902;6.024;2023-05-21T07:36:38;8.88;;;1.52;;
52458;SDS011;38372;52.902;6.024;2023-05-21T07:39:04;3.72;;;1.00;;
52458;SDS011;38372;52.902;6.024;2023-05-21T07:41:29;4.50;;;1.83;;
52458;SDS011;38372;52.902;6.024;2023-05-21T07:43:56;2.35;;;1.20;;
52458;SDS011;38372;52.902;6.024;2023-05-21T07:46:22;3.13;;;1.42;;
52458;SDS011;38372;52.902;6.024;2023-05-21T07:48:48;4.07;;;1.33;;
52458;SDS011;38372;52.902;6.024;2023-05-21T07:51:14;2.38;;;1.00;;
52458;SDS011;38372;52.902;6.024;2023-05-21T07:53:40;3.95;;;1.60;;
52458;SDS011;38372;52.902;6.024;2023-05-21T07:56:06;4.55;;;1.60;;
52458;SDS011;38372;52.902;6.024;2023-05-21T07:58:32;3.33;;;1.38;;
52458;SDS011;38372;52.902;6.024;2023-05-21T08:01:00;3.83;;;1.45;;
52458;SDS011;38372;52.902;6.024;2023-05-21T08:03:26;1.15;;;0.82;;
52458;SDS011;38372;52.902;6.024;2023-05-21T08:05:54;2.17;;;1.20;;
52458;SDS011;38372;52.902;6.024;2023-05-21T08:08:21;3.63;;;1.38;;
52458;SDS011;38372;52.902;6.024;2023-05-21T08:10:47;2.92;;;1.25;;
52458;SDS011;38372;52.902;6.024;2023-05-21T08:13:14;1.95;;;1.23;;
52458;SDS011;38372;52.902;6.024;2023-05-21T08:15:40;2.40;;;1.40;;
52458;SDS011;38372;52.902;6.024;2023-05-21T08:18:06;2.90;;;1.35;;
52458;SDS011;38372;52.902;6.024;2023-05-21T08:20:32;3.30;;;1.70;;
52458;SDS011;38372;52.902;6.024;2023-05-21T08:22:58;3.15;;;1.38;;
52458;SDS011;38372;52.902;6.024;2023-05-21T08:25:27;3.85;;;1.23;;
52458;SDS011;38372;52.902;6.024;2023-05-21T08:27:54;3.05;;;1.30;;
52458;SDS011;38372;52.902;6.024;2023-05-21T08:30:20;5.70;;;1.27;;
52458;SDS011;38372;52.902;6.024;2023-05-21T08:32:46;2.42;;;1.27;;
52458;SDS011;38372;52.902;6.024;2023-05-21T08:35:12;3.35;;;1.40;;
52458;SDS011;38372;52.902;6.024;2023-05-21T08:37:38;2.88;;;1.60;;
52458;SDS011;38372;52.902;6.024;2023-05-21T08:40:04;3.78;;;1.85;;
52458;SDS011;38372;52.902;6.024;2023-05-21T08:45:10;3.80;;;1.63;;
52458;SDS011;38372;52.902;6.024;2023-05-21T08:47:44;2.67;;;1.48;;
52458;SDS011;38372;52.902;6.024;2023-05-21T08:50:14;5.05;;;1.58;;
52458;SDS011;38372;52.902;6.024;2023-05-21T08:52:43;2.58;;;1.17;;
52458;SDS011;38372;52.902;6.024;2023-05-21T08:55:09;2.70;;;1.02;;
52458;SDS011;38372;52.902;6.024;2023-05-21T08:57:36;2.75;;;1.35;;
52458;SDS011;38372;52.902;6.024;2023-05-21T09:00:03;3.58;;;1.70;;
52458;SDS011;38372;52.902;6.024;2023-05-21T09:02:31;2.05;;;1.40;;
52458;SDS011;38372;52.902;6.024;2023-05-21T09:04:58;3.83;;;1.42;;
52458;SDS011;38372;52.902;6.024;2023-05-21T09:07:27;3.57;;;1.37;;
52458;SDS011;38372;52.902;6.024;2023-05-21T09:09:56;2.83;;;1.33;;
52458;SDS011;38372;52.902;6.024;2023-05-21T09:12:26;4.38;;;1.60;;
52458;SDS011;38372;52.902;6.024;2023-05-21T09:14:52;2.63;;;1.75;;
52458;SDS011;38372;52.902;6.024;2023-05-21T09:17:19;2.22;;;1.05;;
52458;SDS011;38372;52.902;6.024;2023-05-21T09:20:30;1.88;;;0.90;;
52458;SDS011;38372;52.902;6.024;2023-05-21T09:22:41;3.47;;;1.85;;
52458;SDS011;38372;52.902;6.024;2023-05-21T09:25:09;2.33;;;1.40;;
52458;SDS011;38372;52.902;6.024;2023-05-21T09:27:36;2.15;;;1.30;;
52458;SDS011;38372;52.902;6.024;2023-05-21T09:30:02;2.20;;;1.27;;
52458;SDS011;38372;52.902;6.024;2023-05-21T09:32:29;2.83;;;1.35;;
52458;SDS011;38372;52.902;6.024;2023-05-21T09:34:55;1.85;;;1.17;;
52458;SDS011;38372;52.902;6.024;2023-05-21T09:37:21;5.63;;;1.85;;
52458;SDS011;38372;52.902;6.024;2023-05-21T09:39:47;2.92;;;1.40;;
52458;SDS011;38372;52.902;6.024;2023-05-21T09:42:13;3.78;;;1.48;;
52458;SDS011;38372;52.902;6.024;2023-05-21T09:44:41;1.80;;;1.15;;
52458;SDS011;38372;52.902;6.024;2023-05-21T09:47:08;2.30;;;1.15;;
52458;SDS011;38372;52.902;6.024;2023-05-21T09:49:36;2.33;;;1.03;;
52458;SDS011;38372;52.902;6.024;2023-05-21T09:52:11;3.17;;;1.48;;
52458;SDS011;38372;52.902;6.024;2023-05-21T09:54:47;3.78;;;1.40;;
52458;SDS011;38372;52.902;6.024;2023-05-21T09:57:21;3.33;;;1.30;;
52458;SDS011;38372;52.902;6.024;2023-05-21T09:59:50;2.92;;;1.40;;
52458;SDS011;38372;52.902;6.024;2023-05-21T10:02:22;1.73;;;0.98;;
52458;SDS011;38372;52.902;6.024;2023-05-21T10:05:13;1.63;;;0.88;;
52458;SDS011;38372;52.902;6.024;2023-05-21T10:07:50;2.88;;;1.05;;
52458;SDS011;38372;52.902;6.024;2023-05-21T10:10:19;2.17;;;0.95;;
52458;SDS011;38372;52.902;6.024;2023-05-21T10:12:49;3.58;;;1.73;;
52458;SDS011;38372;52.902;6.024;2023-05-21T10:15:20;3.15;;;1.25;;
52458;SDS011;38372;52.902;6.024;2023-05-21T10:17:49;2.03;;;1.33;;
52458;SDS011;38372;52.902;6.024;2023-05-21T10:20:17;4.75;;;1.75;;
52458;SDS011;38372;52.902;6.024;2023-05-21T10:22:43;2.67;;;1.23;;
52458;SDS011;38372;52.902;6.024;2023-05-21T10:25:11;2.42;;;1.60;;
52458;SDS011;38372;52.902;6.024;2023-05-21T10:27:38;2.83;;;1.40;;
52458;SDS011;38372;52.902;6.024;2023-05-21T10:30:05;3.17;;;1.20;;
52458;SDS011;38372;52.902;6.024;2023-05-21T10:32:32;1.75;;;1.05;;
52458;SDS011;38372;52.902;6.024;2023-05-21T10:34:59;2.65;;;1.10;;
52458;SDS011;38372;52.902;6.024;2023-05-21T10:37:26;3.70;;;1.10;;
52458;SDS011;38372;52.902;6.024;2023-05-21T10:39:53;2.58;;;0.93;;
52458;SDS011;38372;52.902;6.024;2023-05-21T10:53:31;2.17;;;1.25;;
52458;SDS011;38372;52.902;6.024;2023-05-21T11:02:07;3.22;;;1.42;;
52458;SDS011;38372;52.902;6.024;2023-05-21T11:04:35;2.70;;;1.73;;
52458;SDS011;38372;52.902;6.024;2023-05-21T11:07:04;1.67;;;0.70;;
52458;SDS011;38372;52.902;6.024;2023-05-21T11:09:30;2.28;;;0.90;;
52458;SDS011;38372;52.902;6.024;2023-05-21T11:11:56;2.00;;;0.93;;
52458;SDS011;38372;52.902;6.024;2023-05-21T11:14:27;2.28;;;1.10;;
52458;SDS011;38372;52.902;6.024;2023-05-21T11:17:02;2.92;;;1.20;;
52458;SDS011;38372;52.902;6.024;2023-05-21T11:19:40;3.83;;;1.27;;
52458;SDS011;38372;52.902;6.024;2023-05-21T11:22:26;2.53;;;1.05;;
52458;SDS011;38372;52.902;6.024;2023-05-21T11:24:52;2.45;;;1.10;;
52458;SDS011;38372;52.902;6.024;2023-05-21T11:29:55;2.72;;;0.88;;
52458;SDS011;38372;52.902;6.024;2023-05-21T11:32:21;2.05;;;0.90;;
52458;SDS011;38372;52.902;6.024;2023-05-21T11:34:48;2.60;;;0.88;;
52458;SDS011;38372;52.902;6.024;2023-05-21T11:39:49;1.38;;;0.70;;
52458;SDS011;38372;52.902;6.024;2023-05-21T11:43:01;2.60;;;1.08;;
52458;SDS011;38372;52.902;6.024;2023-05-21T11:45:06;1.95;;;0.85;;
52458;SDS011;38372;52.902;6.024;2023-05-21T11:47:32;4.80;;;0.93;;
52458;SDS011;38372;52.902;6.024;2023-05-21T11:49:59;2.28;;;0.90;;
52458;SDS011;38372;52.902;6.024;2023-05-21T11:52:29;2.08;;;1.00;;
52458;SDS011;38372;52.902;6.024;2023-05-21T11:54:58;1.67;;;0.98;;
52458;SDS011;38372;52.902;6.024;2023-05-21T11:57:26;2.05;;;0.98;;
52458;SDS011;38372;52.902;6.024;2023-05-21T11:59:56;1.92;;;0.88;;
52458;SDS011;38372;52.902;6.024;2023-05-21T12:02:23;2.22;;;0.80;;
52458;SDS011;38372;52.902;6.024;2023-05-21T12:04:52;1.45;;;1.10;;
52458;SDS011;38372;52.902;6.024;2023-05-21T12:07:18;2.03;;;1.00;;
52458;SDS011;38372;52.902;6.024;2023-05-21T12:09:45;2.15;;;1.20;;
52458;SDS011;38372;52.902;6.024;2023-05-21T12:12:18;2.85;;;1.20;;
52458;SDS011;38372;52.902;6.024;2023-05-21T12:14:49;2.05;;;0.93;;
52458;SDS011;38372;52.902;6.024;2023-05-21T12:17:17;1.75;;;1.15;;
52458;SDS011;38372;52.902;6.024;2023-05-21T12:19:47;2.15;;;1.05;;
52458;SDS011;38372;52.902;6.024;2023-05-21T12:22:16;1.15;;;0.57;;
52458;SDS011;38372;52.902;6.024;2023-05-21T12:24:42;3.85;;;1.48;;
52458;SDS011;38372;52.902;6.024;2023-05-21T12:27:08;2.78;;;1.13;;
52458;SDS011;38372;52.902;6.024;2023-05-21T12:29:38;2.53;;;1.33;;
52458;SDS011;38372;52.902;6.024;2023-05-21T12:32:06;2.30;;;1.23;;
52458;SDS011;38372;52.902;6.024;2023-05-21T12:37:16;1.95;;;1.40;;
52458;SDS011;38372;52.902;6.024;2023-05-21T12:39:49;3.85;;;1.30;;
52458;SDS011;38372;52.902;6.024;2023-05-21T12:42:29;2.58;;;1.30;;
52458;SDS011;38372;52.902;6.024;2023-05-21T12:44:58;3.28;;;1.10;;
52458;SDS011;38372;52.902;6.024;2023-05-21T12:47:26;2.25;;;0.93;;
52458;SDS011;38372;52.902;6.024;2023-05-21T12:49:52;4.00;;;1.20;;
52458;SDS011;38372;52.902;6.024;2023-05-21T12:52:22;3.70;;;1.23;;
52458;SDS011;38372;52.902;6.024;2023-05-21T12:54:49;2.58;;;1.13;;
52458;SDS011;38372;52.902;6.024;2023-05-21T12:57:17;4.18;;;1.70;;
52458;SDS011;38372;52.902;6.024;2023-05-21T12:59:49;2.15;;;1.13;;
52458;SDS011;38372;52.902;6.024;2023-05-21T13:02:24;2.25;;;1.08;;
52458;SDS011;38372;52.902;6.024;2023-05-21T13:04:56;2.47;;;1.15;;
52458;SDS011;38372;52.902;6.024;2023-05-21T13:07:28;5.32;;;1.73;;
52458;SDS011;38372;52.902;6.024;2023-05-21T13:09:55;3.03;;;1.83;;
52458;SDS011;38372;52.902;6.024;2023-05-21T13:12:24;4.82;;;1.98;;
52458;SDS011;38372;52.902;6.024;2023-05-21T13:14:51;3.55;;;1.70;;
52458;SDS011;38372;52.902;6.024;2023-05-21T13:17:19;4.88;;;2.05;;
52458;SDS011;38372;52.902;6.024;2023-05-21T13:22:43;3.38;;;1.73;;
52458;SDS011;38372;52.902;6.024;2023-05-21T13:25:24;4.53;;;1.38;;
52458;SDS011;38372;52.902;6.024;2023-05-21T13:27:54;3.40;;;1.77;;
52458;SDS011;38372;52.902;6.024;2023-05-21T13:30:20;4.20;;;1.60;;
52458;SDS011;38372;52.902;6.024;2023-05-21T13:32:46;2.45;;;1.58;;
52458;SDS011;38372;52.902;6.024;2023-05-21T13:35:12;5.50;;;2.35;;
52458;SDS011;38372;52.902;6.024;2023-05-21T13:37:40;5.13;;;2.42;;
52458;SDS011;38372;52.902;6.024;2023-05-21T13:40:07;3.03;;;1.63;;
52458;SDS011;38372;52.902;6.024;2023-05-21T13:42:46;4.38;;;1.60;;
52458;SDS011;38372;52.902;6.024;2023-05-21T13:45:17;4.35;;;1.85;;
52458;SDS011;38372;52.902;6.024;2023-05-21T13:47:44;4.30;;;2.10;;
52458;SDS011;38372;52.902;6.024;2023-05-21T13:50:11;5.78;;;2.00;;
52458;SDS011;38372;52.902;6.024;2023-05-21T13:52:37;4.03;;;1.35;;
52458;SDS011;38372;52.902;6.024;2023-05-21T13:55:04;4.43;;;2.33;;
52458;SDS011;38372;52.902;6.024;2023-05-21T13:57:30;4.25;;;2.30;;
52458;SDS011;38372;52.902;6.024;2023-05-21T13:59:56;4.30;;;2.00;;
52458;SDS011;38372;52.902;6.024;2023-05-21T14:02:23;4.55;;;1.98;;
52458;SDS011;38372;52.902;6.024;2023-05-21T14:04:49;4.22;;;2.20;;
52458;SDS011;38372;52.902;6.024;2023-05-21T14:07:15;4.55;;;2.30;;
52458;SDS011;38372;52.902;6.024;2023-05-21T14:09:41;4.35;;;2.30;;
52458;SDS011;38372;52.902;6.024;2023-05-21T14:12:07;4.28;;;2.47;;
52458;SDS011;38372;52.902;6.024;2023-05-21T14:14:33;4.22;;;2.03;;
52458;SDS011;38372;52.902;6.024;2023-05-21T14:16:59;6.03;;;2.85;;
52458;SDS011;38372;52.902;6.024;2023-05-21T14:19:24;5.22;;;2.67;;
52458;SDS011;38372;52.902;6.024;2023-05-21T14:21:51;4.10;;;1.80;;
52458;SDS011;38372;52.902;6.024;2023-05-21T14:24:17;6.47;;;2.47;;
52458;SDS011;38372;52.902;6.024;2023-05-21T14:26:42;3.55;;;1.95;;
52458;SDS011;38372;52.902;6.024;2023-05-21T14:29:08;5.13;;;2.35;;
52458;SDS011;38372;52.902;6.024;2023-05-21T14:31:34;3.75;;;2.10;;
52458;SDS011;38372;52.902;6.024;2023-05-21T14:34:00;3.83;;;2.20;;
52458;SDS011;38372;52.902;6.024;2023-05-21T14:36:31;3.72;;;2.35;;
52458;SDS011;38372;52.902;6.024;2023-05-21T14:38:57;5.28;;;2.85;;
52458;SDS011;38372;52.902;6.024;2023-05-21T14:41:23;4.88;;;2.10;;
52458;SDS011;38372;52.902;6.024;2023-05-21T14:43:52;5.57;;;2.72;;
52458;SDS011;38372;52.902;6.024;2023-05-21T14:46:18;5.25;;;2.70;;
52458;SDS011;38372;52.902;6.024;2023-05-21T14:48:44;8.30;;;2.40;;
52458;SDS011;38372;52.902;6.024;2023-05-21T14:51:11;4.05;;;2.40;;
52458;SDS011;38372;52.902;6.024;2023-05-21T14:53:40;9.52;;;3.72;;
52458;SDS011;38372;52.902;6.024;2023-05-21T14:56:06;5.63;;;3.25;;
52458;SDS011;38372;52.902;6.024;2023-05-21T14:58:32;6.80;;;2.55;;
52458;SDS011;38372;52.902;6.024;2023-05-21T15:00:58;5.90;;;3.08;;
52458;SDS011;38372;52.902;6.024;2023-05-21T15:03:24;6.65;;;3.08;;
52458;SDS011;38372;52.902;6.024;2023-05-21T15:05:50;5.63;;;2.58;;
52458;SDS011;38372;52.902;6.024;2023-05-21T15:08:16;7.50;;;3.15;;
52458;SDS011;38372;52.902;6.024;2023-05-21T15:10:42;7.03;;;3.00;;
52458;SDS011;38372;52.902;6.024;2023-05-21T15:13:08;5.70;;;3.10;;
52458;SDS011;38372;52.902;6.024;2023-05-21T15:15:34;5.63;;;3.33;;
52458;SDS011;38372;52.902;6.024;2023-05-21T15:17:59;4.88;;;2.40;;
52458;SDS011;38372;52.902;6.024;2023-05-21T15:20:25;5.80;;;3.13;;
52458;SDS011;38372;52.902;6.024;2023-05-21T15:22:51;5.35;;;2.78;;